createdAt,value
2018-03-16T09:25:26.264Z,1003.27
2018-03-16T09:26:35.075Z,1003.22
2018-03-16T09:27:43.880Z,1003.17
2018-03-16T09:28:52.742Z,1003.14
2018-03-16T09:30:01.566Z,1003.24
2018-03-16T09:31:10.535Z,1003.18
2018-03-16T09:32:19.511Z,1003.26
2018-03-16T09:33:28.407Z,1003.26
2018-03-16T09:34:37.361Z,1003.2
2018-03-16T09:37:15.951Z,1003.3
2018-03-16T09:38:24.839Z,1003.32
2018-03-16T09:39:33.710Z,1003.44
2018-03-16T09:40:42.625Z,1003.4
2018-03-16T09:41:51.584Z,1003.35
2018-03-16T09:43:00.543Z,1003.35
2018-03-16T09:44:09.459Z,1003.35
2018-03-16T09:45:18.332Z,1003.38
2018-03-16T09:46:27.215Z,1003.43
2018-03-16T09:47:36.087Z,1003.4
2018-03-16T09:48:44.965Z,1003.44
2018-03-16T09:49:53.840Z,1003.46
2018-03-16T09:51:02.717Z,1003.4
2018-03-16T09:52:11.589Z,1003.49
2018-03-16T09:53:20.470Z,1003.4
2018-03-16T09:54:29.348Z,1003.37
2018-03-16T09:55:38.504Z,1003.38
2018-03-16T09:56:47.398Z,1003.35
2018-03-16T09:57:56.376Z,1003.34
2018-03-16T09:59:05.700Z,1003.41
2018-03-16T10:00:14.618Z,1003.37
2018-03-16T10:01:23.518Z,1003.4
2018-03-16T10:02:32.421Z,1003.4
2018-03-16T10:03:41.585Z,1003.38
2018-03-16T10:04:50.530Z,1003.41
2018-03-16T10:05:59.415Z,1003.44
2018-03-16T10:07:08.292Z,1003.43
2018-03-16T10:08:17.168Z,1003.37
2018-03-16T10:09:26.046Z,1003.34
2018-03-16T10:10:34.929Z,1003.34
2018-03-16T10:11:43.807Z,1003.37
2018-03-16T10:12:52.686Z,1003.29
2018-03-16T10:14:01.566Z,1003.29
2018-03-16T10:15:10.449Z,1003.47
2018-03-16T10:16:19.326Z,1003.37
2018-03-16T10:17:28.196Z,1003.33
2018-03-16T10:18:37.076Z,1003.4
2018-03-16T10:19:45.952Z,1003.28
2018-03-16T10:20:54.837Z,1003.33
2018-03-16T10:22:03.709Z,1003.34
2018-03-16T10:23:12.597Z,1003.33
2018-03-16T10:24:21.470Z,1003.32
2018-03-16T10:25:30.352Z,1003.37
2018-03-16T10:26:39.229Z,1003.26
2018-03-16T10:27:48.386Z,1003.35
2018-03-16T10:28:57.535Z,1003.32
2018-03-16T10:30:06.702Z,1003.32
2018-03-16T10:31:15.581Z,1003.33
2018-03-16T10:32:24.467Z,1003.36
2018-03-16T10:33:33.353Z,1003.33
2018-03-16T10:34:42.231Z,1003.28
2018-03-16T10:35:51.112Z,1003.35
2018-03-16T10:36:59.998Z,1003.38
2018-03-16T10:38:08.878Z,1003.46
2018-03-16T10:39:17.757Z,1003.39
2018-03-16T10:40:26.632Z,1003.44
2018-03-16T10:41:35.514Z,1003.37
2018-03-16T10:42:44.443Z,1003.42
2018-03-16T10:43:53.273Z,1003.41
2018-03-16T10:45:02.155Z,1003.37
2018-03-16T10:46:11.030Z,1003.41
2018-03-16T10:47:20.189Z,1003.47
2018-03-16T10:48:29.060Z,1003.47
2018-03-16T10:49:37.946Z,1003.48
2018-03-16T10:50:46.820Z,1003.41
2018-03-16T10:51:55.983Z,1003.48
2018-03-16T10:53:04.869Z,1003.49
2018-03-16T10:54:13.772Z,1003.45
2018-03-16T10:55:22.624Z,1003.5
2018-03-16T10:56:31.498Z,1003.44
2018-03-16T10:57:40.377Z,1003.46
2018-03-16T10:58:49.257Z,1003.38
2018-03-16T10:59:58.137Z,1003.4
2018-03-16T11:01:07.284Z,1003.42
2018-03-16T11:02:16.169Z,1003.42
2018-03-16T11:03:25.045Z,1003.41
2018-03-16T11:04:33.923Z,1003.49
2018-03-16T11:05:42.794Z,1003.42
2018-03-16T11:06:51.683Z,1003.36
2018-03-16T11:08:00.561Z,1003.46
2018-03-16T11:09:09.434Z,1003.45
2018-03-16T11:10:18.308Z,1003.49
2018-03-16T11:11:27.192Z,1003.36
2018-03-16T11:12:36.076Z,1003.4
2018-03-16T11:13:44.959Z,1003.46
2018-03-16T11:14:53.839Z,1003.44
2018-03-16T11:16:02.995Z,1003.39
2018-03-16T11:17:11.917Z,1003.42
2018-03-16T11:18:20.749Z,1003.34
2018-03-16T11:19:29.633Z,1003.35
2018-03-16T11:20:38.538Z,1003.39
2018-03-16T11:21:47.413Z,1003.39
2018-03-16T11:22:56.285Z,1003.42
2018-03-16T11:24:05.164Z,1003.42
2018-03-16T11:25:14.041Z,1003.42
2018-03-16T11:26:22.929Z,1003.49
2018-03-16T11:27:31.797Z,1003.41
2018-03-16T11:28:40.674Z,1003.44
2018-03-16T11:29:49.834Z,1003.45
2018-03-16T11:30:58.714Z,1003.37
2018-03-16T11:32:07.870Z,1003.4
2018-03-16T11:33:16.748Z,1003.4
2018-03-16T11:34:25.622Z,1003.32
2018-03-16T11:35:34.538Z,1003.41
2018-03-16T11:36:43.856Z,1003.28
2018-03-16T11:37:52.790Z,1003.32
2018-03-16T11:39:01.700Z,1003.3
2018-03-16T11:40:10.604Z,1003.32
2018-03-16T11:41:19.477Z,1003.27
2018-03-16T11:42:28.381Z,1003.32
2018-03-16T11:43:37.525Z,1003.31
2018-03-16T11:44:46.964Z,1003.31
2018-03-16T11:45:55.838Z,1003.28
2018-03-16T11:47:04.726Z,1003.33
2018-03-16T11:48:13.598Z,1003.33
2018-03-16T11:49:22.473Z,1003.23
2018-03-16T11:50:31.346Z,1003.34
2018-03-16T11:51:40.501Z,1003.33
2018-03-16T11:52:49.390Z,1003.28
2018-03-16T11:53:58.582Z,1003.35
2018-03-16T11:55:07.486Z,1003.26
